Time;durP1;ratioP1;P1;durP2;ratioP2;P2;SDS_P1;SDS_P2;PMS_P1;PMS_P2;Temp;Humidity;BMP_temperature;BMP_pressure;BME280_temperature;BME280_humidity;BME280_pressure;Samples;Min_cycle;Max_cycle;Signal;HPM_P1;HPM_P2
2024/01/01 00:02:12;;;;;;;12.77;2.27;;;;;;;;;;6305106;22;20711;-80
2024/01/01 00:04:39;;;;;;;10.40;2.10;;;;;;;;;;6304951;22;20578;-80
2024/01/01 00:07:06;;;;;;;6.83;1.70;;;;;;;;;;6305301;22;20227;-80
2024/01/01 00:09:33;;;;;;;6.60;1.87;;;;;;;;;;6305414;22;20198;-80
2024/01/01 00:12:01;;;;;;;12.97;2.03;;;;;;;;;;6305219;22;20170;-80
2024/01/01 00:14:29;;;;;;;6.97;1.90;;;;;;;;;;6304503;22;20166;-80
2024/01/01 00:16:56;;;;;;;15.30;2.20;;;;;;;;;;6305440;22;20170;-79
2024/01/01 00:19:23;;;;;;;11.63;2.00;;;;;;;;;;6305299;22;20213;-82
2024/01/01 00:21:51;;;;;;;9.33;2.33;;;;;;;;;;6304762;22;20198;-80
2024/01/01 00:24:18;;;;;;;11.27;2.50;;;;;;;;;;6305044;22;20170;-81
2024/01/01 00:26:45;;;;;;;11.27;2.00;;;;;;;;;;6305382;22;20215;-81
2024/01/01 00:29:12;;;;;;;10.67;1.87;;;;;;;;;;6304735;22;20206;-82
2024/01/01 00:31:42;;;;;;;11.43;2.10;;;;;;;;;;6304759;22;20198;-82
2024/01/01 00:34:10;;;;;;;12.10;2.27;;;;;;;;;;6304926;22;20224;-81
2024/01/01 00:36:37;;;;;;;11.50;2.03;;;;;;;;;;6306373;22;20215;-81
2024/01/01 00:39:04;;;;;;;12.13;2.00;;;;;;;;;;6307489;22;20507;-82
2024/01/01 00:41:32;;;;;;;10.50;2.07;;;;;;;;;;6307170;22;20249;-81
2024/01/01 00:43:59;;;;;;;12.80;2.17;;;;;;;;;;6306483;22;20189;-80
2024/01/01 00:46:26;;;;;;;13.77;1.97;;;;;;;;;;6307514;22;20169;-81
2024/01/01 00:48:54;;;;;;;11.37;2.20;;;;;;;;;;6307229;22;20197;-82
2024/01/01 00:51:22;;;;;;;11.83;2.40;;;;;;;;;;6306938;22;20280;-81
2024/01/01 00:53:49;;;;;;;15.47;2.37;;;;;;;;;;6306808;22;20193;-82
2024/01/01 00:56:16;;;;;;;8.00;1.80;;;;;;;;;;6306974;22;20203;-81
2024/01/01 00:58:43;;;;;;;14.13;2.20;;;;;;;;;;6305971;22;20211;-82
2024/01/01 01:01:10;;;;;;;11.43;2.07;;;;;;;;;;6306317;22;20192;-81
2024/01/01 01:03:37;;;;;;;7.43;2.00;;;;;;;;;;6306531;22;20249;-81
2024/01/01 01:06:06;;;;;;;12.30;2.30;;;;;;;;;;6306612;22;20253;-82
2024/01/01 01:08:34;;;;;;;9.50;1.73;;;;;;;;;;6306500;22;20763;-81
2024/01/01 01:11:01;;;;;;;13.90;2.33;;;;;;;;;;6306687;22;20679;-80
2024/01/01 01:13:28;;;;;;;12.77;2.43;;;;;;;;;;6306197;22;20661;-81
2024/01/01 01:15:55;;;;;;;10.50;2.37;;;;;;;;;;6306564;22;20173;-81
2024/01/01 01:18:22;;;;;;;12.17;1.90;;;;;;;;;;6306348;22;20201;-81
2024/01/01 01:20:50;;;;;;;13.40;2.00;;;;;;;;;;6306387;22;20177;-82
2024/01/01 01:23:18;;;;;;;10.33;2.10;;;;;;;;;;6306512;22;20223;-81
2024/01/01 01:25:45;;;;;;;9.40;2.10;;;;;;;;;;6306748;22;20173;-81
2024/01/01 01:28:13;;;;;;;11.80;2.30;;;;;;;;;;6305597;22;20196;-81
2024/01/01 01:30:40;;;;;;;14.50;2.40;;;;;;;;;;6306377;22;20229;-81
2024/01/01 01:33:07;;;;;;;13.27;1.93;;;;;;;;;;6305999;22;20197;-81
2024/01/01 01:35:34;;;;;;;10.47;1.90;;;;;;;;;;6306051;22;20189;-81
2024/01/01 01:38:01;;;;;;;10.87;1.87;;;;;;;;;;6306322;22;20209;-82
2024/01/01 01:40:30;;;;;;;10.83;1.97;;;;;;;;;;6306378;22;20216;-81
2024/01/01 01:42:58;;;;;;;13.67;2.23;;;;;;;;;;6306429;22;20188;-81
2024/01/01 01:45:25;;;;;;;13.73;2.27;;;;;;;;;;6306275;22;20245;-81
2024/01/01 01:47:53;;;;;;;11.67;2.33;;;;;;;;;;6306034;22;20699;-81
2024/01/01 01:50:21;;;;;;;12.63;2.50;;;;;;;;;;6306086;22;20232;-81
2024/01/01 01:52:49;;;;;;;13.77;2.30;;;;;;;;;;6306698;22;20235;-81
2024/01/01 01:55:22;;;;;;;14.70;2.10;;;;;;;;;;6306050;22;20252;-80
2024/01/01 01:57:51;;;;;;;11.37;1.90;;;;;;;;;;6306317;22;20170;-81
2024/01/01 02:00:18;;;;;;;12.87;2.40;;;;;;;;;;6305339;22;20236;-81
2024/01/01 02:02:46;;;;;;;14.70;2.43;;;;;;;;;;6306204;22;20248;-81
2024/01/01 02:05:13;;;;;;;12.43;2.00;;;;;;;;;;6305889;22;20169;-81
2024/01/01 02:07:41;;;;;;;20.37;2.40;;;;;;;;;;6306488;22;20194;-82
2024/01/01 02:10:09;;;;;;;12.47;2.30;;;;;;;;;;6305916;22;20177;-81
2024/01/01 02:12:36;;;;;;;14.40;2.30;;;;;;;;;;6306431;22;20248;-81
2024/01/01 02:15:05;;;;;;;12.80;2.30;;;;;;;;;;6306543;22;20170;-82
2024/01/01 02:17:32;;;;;;;16.13;3.17;;;;;;;;;;6306082;22;20205;-82
2024/01/01 02:20:00;;;;;;;13.67;2.40;;;;;;;;;;6306531;22;20235;-82
2024/01/01 02:22:27;;;;;;;14.87;2.63;;;;;;;;;;6306186;22;20206;-82
2024/01/01 02:24:55;;;;;;;13.87;2.00;;;;;;;;;;6304471;22;20197;-81
2024/01/01 02:27:23;;;;;;;16.37;2.67;;;;;;;;;;6306355;22;20234;-81
2024/01/01 02:29:50;;;;;;;10.63;2.80;;;;;;;;;;6305509;22;20565;-81
2024/01/01 02:32:17;;;;;;;15.97;2.73;;;;;;;;;;6305181;22;20522;-81
2024/01/01 02:34:44;;;;;;;15.57;2.63;;;;;;;;;;6306271;22;20166;-79
2024/01/01 02:37:12;;;;;;;14.47;2.53;;;;;;;;;;6305868;22;20201;-81
2024/01/01 02:39:39;;;;;;;13.23;2.13;;;;;;;;;;6305410;22;20189;-82
2024/01/01 02:42:08;;;;;;;11.57;2.23;;;;;;;;;;6305907;22;20170;-82
2024/01/01 02:44:35;;;;;;;14.57;2.40;;;;;;;;;;6305420;22;20181;-82
2024/01/01 02:47:02;;;;;;;14.13;2.20;;;;;;;;;;6305687;22;20197;-82
2024/01/01 02:49:29;;;;;;;10.10;2.30;;;;;;;;;;6306068;22;20169;-82
2024/01/01 02:51:57;;;;;;;14.80;2.47;;;;;;;;;;6305589;22;20231;-82
2024/01/01 02:54:24;;;;;;;11.43;2.60;;;;;;;;;;6304483;22;20190;-81
2024/01/01 02:56:51;;;;;;;14.60;2.57;;;;;;;;;;6303579;22;20165;-78
2024/01/01 02:59:19;;;;;;;15.73;2.37;;;;;;;;;;6304400;22;20614;-77
2024/01/01 03:01:47;;;;;;;16.40;2.30;;;;;;;;;;6305071;22;20192;-77
2024/01/01 03:04:14;;;;;;;12.80;2.10;;;;;;;;;;6305636;22;20177;-76
2024/01/01 03:06:41;;;;;;;14.40;2.40;;;;;;;;;;6305764;22;20211;-77
2024/01/01 03:09:09;;;;;;;10.80;2.57;;;;;;;;;;6304783;22;20200;-77
2024/01/01 03:11:36;;;;;;;10.13;2.30;;;;;;;;;;6305528;22;20280;-77
2024/01/01 03:14:03;;;;;;;11.53;2.50;;;;;;;;;;6306034;22;20170;-76
2024/01/01 03:16:32;;;;;;;13.37;2.97;;;;;;;;;;6305603;22;20550;-77
2024/01/01 03:18:59;;;;;;;13.57;2.50;;;;;;;;;;6305241;22;20170;-77
2024/01/01 03:21:27;;;;;;;15.37;2.73;;;;;;;;;;6305516;22;20166;-75
2024/01/01 03:23:54;;;;;;;13.17;2.50;;;;;;;;;;6304966;22;20201;-77
2024/01/01 03:26:22;;;;;;;10.73;2.03;;;;;;;;;;6305085;22;20580;-77
2024/01/01 03:28:49;;;;;;;11.80;2.40;;;;;;;;;;6305645;22;20170;-77
2024/01/01 03:31:16;;;;;;;13.13;2.40;;;;;;;;;;6305052;22;20232;-77
2024/01/01 03:33:45;;;;;;;11.53;2.20;;;;;;;;;;6305411;22;20201;-77
2024/01/01 03:36:13;;;;;;;16.23;2.57;;;;;;;;;;6304832;22;20840;-77
2024/01/01 03:38:40;;;;;;;12.40;2.17;;;;;;;;;;6303413;22;20703;-77
2024/01/01 03:41:07;;;;;;;13.73;2.23;;;;;;;;;;6304451;22;20208;-77
2024/01/01 03:43:34;;;;;;;12.33;2.00;;;;;;;;;;6305450;22;20204;-77
2024/01/01 03:46:01;;;;;;;12.80;2.30;;;;;;;;;;6305317;22;20193;-77
2024/01/01 03:48:29;;;;;;;10.10;2.03;;;;;;;;;;6305418;22;20200;-76
2024/01/01 03:50:57;;;;;;;16.53;3.10;;;;;;;;;;6304696;22;20204;-77
2024/01/01 03:53:24;;;;;;;14.50;2.77;;;;;;;;;;6304823;22;20561;-76
2024/01/01 03:55:51;;;;;;;10.57;2.17;;;;;;;;;;6304111;22;20469;-76
2024/01/01 03:58:19;;;;;;;14.17;2.33;;;;;;;;;;6304703;22;20727;-77
2024/01/01 04:00:46;;;;;;;12.80;2.37;;;;;;;;;;6305464;22;20165;-77
2024/01/01 04:03:14;;;;;;;13.43;2.07;;;;;;;;;;6304948;22;20170;-77
2024/01/01 04:05:41;;;;;;;11.33;2.17;;;;;;;;;;6304616;22;20583;-77
2024/01/01 04:08:10;;;;;;;14.50;2.60;;;;;;;;;;6305606;22;20197;-78
2024/01/01 04:10:40;;;;;;;8.80;1.73;;;;;;;;;;6305442;22;20257;-77
2024/01/01 04:13:07;;;;;;;14.67;2.23;;;;;;;;;;6307255;22;20249;-76
2024/01/01 04:15:34;;;;;;;10.80;2.17;;;;;;;;;;6307536;22;20166;-77
2024/01/01 04:18:01;;;;;;;16.67;2.53;;;;;;;;;;6306982;22;20193;-76
2024/01/01 04:20:28;;;;;;;11.17;2.00;;;;;;;;;;6306983;22;20170;-77
2024/01/01 04:22:55;;;;;;;11.03;2.30;;;;;;;;;;6307015;22;20252;-77
2024/01/01 04:25:24;;;;;;;13.20;2.33;;;;;;;;;;6306695;22;20224;-78
2024/01/01 04:27:51;;;;;;;16.30;2.43;;;;;;;;;;6306993;22;20174;-77
2024/01/01 04:30:18;;;;;;;16.50;2.43;;;;;;;;;;6306850;22;20188;-77
2024/01/01 04:32:45;;;;;;;13.40;2.40;;;;;;;;;;6306640;22;20208;-76
2024/01/01 04:35:13;;;;;;;13.00;2.37;;;;;;;;;;6306687;22;20656;-77
2024/01/01 04:37:40;;;;;;;16.77;2.43;;;;;;;;;;6306704;22;20173;-77
2024/01/01 04:40:08;;;;;;;15.97;2.67;;;;;;;;;;6306862;22;20245;-77
2024/01/01 04:42:37;;;;;;;18.20;2.50;;;;;;;;;;6306884;22;20174;-77
2024/01/01 04:45:04;;;;;;;22.57;2.90;;;;;;;;;;6307191;22;20197;-76
2024/01/01 04:47:34;;;;;;;17.93;2.40;;;;;;;;;;6307198;22;20193;-75
2024/01/01 04:50:02;;;;;;;14.27;2.17;;;;;;;;;;6306407;22;20170;-77
2024/01/01 04:52:29;;;;;;;9.20;2.00;;;;;;;;;;6306811;22;20531;-77
2024/01/01 04:54:57;;;;;;;13.43;2.33;;;;;;;;;;6306319;22;20272;-77
2024/01/01 04:57:25;;;;;;;17.23;2.30;;;;;;;;;;6306734;22;20208;-76
2024/01/01 04:59:53;;;;;;;11.80;2.43;;;;;;;;;;6306383;22;20251;-77
2024/01/01 05:02:20;;;;;;;12.83;2.20;;;;;;;;;;6306578;22;20565;-77
2024/01/01 05:04:47;;;;;;;16.23;2.03;;;;;;;;;;6306750;22;20170;-77
2024/01/01 05:07:15;;;;;;;12.37;1.90;;;;;;;;;;6306843;22;20174;-77
2024/01/01 05:09:43;;;;;;;13.70;2.17;;;;;;;;;;6306623;22;20170;-76
2024/01/01 05:12:10;;;;;;;13.97;2.30;;;;;;;;;;6306995;22;20201;-77
2024/01/01 05:14:39;;;;;;;13.23;2.20;;;;;;;;;;6306598;22;20196;-77
2024/01/01 05:17:07;;;;;;;14.03;2.27;;;;;;;;;;6306506;22;20196;-77
2024/01/01 05:19:34;;;;;;;12.27;2.17;;;;;;;;;;6306377;22;20197;-76
2024/01/01 05:22:03;;;;;;;11.87;2.30;;;;;;;;;;6306578;22;20185;-77
2024/01/01 05:24:31;;;;;;;14.40;2.10;;;;;;;;;;6306809;22;20213;-77
2024/01/01 05:26:58;;;;;;;12.57;2.20;;;;;;;;;;6306121;22;20166;-78
2024/01/01 05:29:25;;;;;;;12.43;2.30;;;;;;;;;;6306606;22;20248;-76
2024/01/01 05:31:52;;;;;;;12.40;2.07;;;;;;;;;;6306495;22;20285;-77
2024/01/01 05:34:21;;;;;;;12.87;2.33;;;;;;;;;;6306152;22;20197;-76
2024/01/01 05:36:48;;;;;;;14.73;2.53;;;;;;;;;;6306355;22;20196;-77
2024/01/01 05:39:15;;;;;;;15.73;2.43;;;;;;;;;;6305886;22;20198;-77
2024/01/01 05:41:42;;;;;;;7.17;2.07;;;;;;;;;;6306682;22;20175;-77
2024/01/01 05:44:10;;;;;;;12.73;1.90;;;;;;;;;;6306739;22;20205;-77
2024/01/01 05:46:37;;;;;;;12.43;2.20;;;;;;;;;;6306678;22;20197;-76
2024/01/01 05:49:04;;;;;;;15.23;2.50;;;;;;;;;;6305828;22;20211;-77
2024/01/01 05:51:32;;;;;;;16.43;2.50;;;;;;;;;;6306225;22;20194;-77
2024/01/01 05:53:59;;;;;;;11.77;2.30;;;;;;;;;;6305703;22;20169;-77
2024/01/01 05:56:26;;;;;;;12.13;2.17;;;;;;;;;;6306233;22;20205;-77
2024/01/01 05:58:53;;;;;;;13.03;2.00;;;;;;;;;;6305806;22;20240;-76
2024/01/01 06:01:21;;;;;;;10.97;2.00;;;;;;;;;;6306196;22;20256;-77
2024/01/01 06:03:49;;;;;;;9.33;2.17;;;;;;;;;;6305765;22;20170;-77
2024/01/01 06:06:16;;;;;;;12.53;2.10;;;;;;;;;;6305474;22;20253;-76
2024/01/01 06:08:44;;;;;;;12.13;1.83;;;;;;;;;;6306333;22;20169;-76
2024/01/01 06:11:12;;;;;;;16.10;2.10;;;;;;;;;;6305420;22;20748;-76
2024/01/01 06:13:39;;;;;;;16.13;2.30;;;;;;;;;;6305892;22;20198;-76
2024/01/01 06:16:06;;;;;;;12.80;2.23;;;;;;;;;;6305969;22;20201;-76
2024/01/01 06:18:33;;;;;;;12.83;2.47;;;;;;;;;;6305825;22;20269;-77
2024/01/01 06:21:01;;;;;;;9.47;1.60;;;;;;;;;;6305907;22;20166;-77
2024/01/01 06:23:28;;;;;;;11.53;2.17;;;;;;;;;;6306133;22;20209;-77
2024/01/01 06:25:56;;;;;;;12.93;2.10;;;;;;;;;;6305673;22;20174;-77
2024/01/01 06:28:25;;;;;;;10.43;1.90;;;;;;;;;;6305835;22;20170;-77
2024/01/01 06:30:53;;;;;;;11.07;2.13;;;;;;;;;;6305441;22;20500;-76
2024/01/01 06:33:20;;;;;;;14.03;2.20;;;;;;;;;;6305028;22;20706;-77
2024/01/01 06:35:47;;;;;;;11.87;1.90;;;;;;;;;;6305675;22;20647;-77
2024/01/01 06:38:14;;;;;;;12.80;1.97;;;;;;;;;;6306077;22;20201;-76
2024/01/01 06:40:43;;;;;;;8.77;1.63;;;;;;;;;;6305709;22;20192;-76
2024/01/01 06:43:12;;;;;;;11.50;1.80;;;;;;;;;;6306267;22;20169;-77
2024/01/01 06:45:39;;;;;;;8.80;1.93;;;;;;;;;;6305213;22;20198;-76
2024/01/01 06:48:09;;;;;;;12.30;2.20;;;;;;;;;;6305824;22;20197;-77
2024/01/01 06:50:36;;;;;;;10.70;2.03;;;;;;;;;;6305665;22;20182;-77
2024/01/01 06:53:03;;;;;;;13.23;2.13;;;;;;;;;;6305557;22;20212;-77
2024/01/01 06:55:31;;;;;;;8.83;1.80;;;;;;;;;;6305921;22;20196;-76
2024/01/01 06:57:59;;;;;;;13.20;2.00;;;;;;;;;;6305777;22;20177;-76
2024/01/01 07:00:28;;;;;;;11.23;2.20;;;;;;;;;;6304782;22;20236;-77
2024/01/01 07:02:56;;;;;;;12.63;1.90;;;;;;;;;;6305177;22;20201;-77
2024/01/01 07:05:24;;;;;;;10.20;1.83;;;;;;;;;;6305259;22;20249;-77
2024/01/01 07:07:51;;;;;;;8.93;2.03;;;;;;;;;;6305588;22;20166;-76
2024/01/01 07:10:19;;;;;;;12.20;1.83;;;;;;;;;;6305539;22;20170;-77
2024/01/01 07:12:46;;;;;;;11.90;2.10;;;;;;;;;;6305053;22;20692;-76
2024/01/01 07:15:13;;;;;;;12.57;1.70;;;;;;;;;;6305139;22;20166;-77
2024/01/01 07:17:41;;;;;;;11.73;2.10;;;;;;;;;;6305779;22;20197;-77
2024/01/01 07:20:10;;;;;;;14.03;2.07;;;;;;;;;;6305099;22;20170;-76
2024/01/01 07:22:37;;;;;;;10.13;2.00;;;;;;;;;;6305015;22;20223;-76
2024/01/01 07:25:05;;;;;;;12.73;1.83;;;;;;;;;;6305351;22;20219;-77
2024/01/01 07:27:32;;;;;;;12.13;1.73;;;;;;;;;;6305698;22;20174;-78
2024/01/01 07:30:00;;;;;;;9.33;1.80;;;;;;;;;;6304426;22;20166;-77
2024/01/01 07:32:27;;;;;;;12.83;1.80;;;;;;;;;;6305662;22;20288;-77
2024/01/01 07:34:56;;;;;;;13.70;1.80;;;;;;;;;;6305078;22;20250;-76
2024/01/01 07:37:23;;;;;;;9.97;1.90;;;;;;;;;;6305161;22;20711;-77
2024/01/01 07:39:50;;;;;;;10.20;2.03;;;;;;;;;;6304899;22;20732;-76
2024/01/01 07:42:18;;;;;;;9.17;1.50;;;;;;;;;;6305226;22;20169;-77
2024/01/01 07:44:45;;;;;;;12.50;2.50;;;;;;;;;;6305384;22;20165;-77
2024/01/01 07:47:12;;;;;;;18.00;2.50;;;;;;;;;;6304939;22;20719;-77
2024/01/01 07:49:40;;;;;;;12.17;2.50;;;;;;;;;;6305058;22;20215;-76
2024/01/01 07:52:09;;;;;;;13.60;2.23;;;;;;;;;;6304940;22;20539;-76
2024/01/01 07:54:38;;;;;;;16.20;2.40;;;;;;;;;;6304660;22;20193;-78
2024/01/01 07:57:06;;;;;;;12.90;2.30;;;;;;;;;;6305352;22;20616;-76
2024/01/01 07:59:33;;;;;;;10.27;1.97;;;;;;;;;;6304624;22;20236;-77
2024/01/01 08:02:00;;;;;;;13.80;2.60;;;;;;;;;;6305066;22;20261;-77
2024/01/01 08:04:28;;;;;;;12.77;2.07;;;;;;;;;;6305245;22;20235;-76
2024/01/01 08:06:55;;;;;;;12.93;1.97;;;;;;;;;;6305138;22;20193;-77
2024/01/01 08:09:23;;;;;;;11.93;2.10;;;;;;;;;;6305175;22;20170;-76
2024/01/01 08:11:50;;;;;;;7.63;1.80;;;;;;;;;;6304867;22;20248;-76
2024/01/01 08:14:17;;;;;;;12.97;1.80;;;;;;;;;;6305000;22;20190;-77
2024/01/01 08:16:45;;;;;;;10.17;1.77;;;;;;;;;;6304769;22;20201;-77
2024/01/01 08:19:12;;;;;;;9.93;1.90;;;;;;;;;;6305459;22;20170;-77
2024/01/01 08:21:40;;;;;;;10.20;1.97;;;;;;;;;;6304834;22;20194;-76
2024/01/01 08:24:07;;;;;;;13.70;1.87;;;;;;;;;;6304634;22;20194;-76
2024/01/01 08:26:36;;;;;;;13.10;2.10;;;;;;;;;;6304548;22;20194;-77
2024/01/01 08:29:03;;;;;;;11.30;2.20;;;;;;;;;;6305162;22;20201;-76
2024/01/01 08:31:30;;;;;;;13.90;3.00;;;;;;;;;;6304458;22;20257;-77
2024/01/01 08:33:57;;;;;;;13.30;3.60;;;;;;;;;;6305062;22;20229;-77
2024/01/01 08:36:25;;;;;;;11.73;3.07;;;;;;;;;;6304877;22;20199;-78
2024/01/01 08:38:53;;;;;;;11.67;2.87;;;;;;;;;;6305182;22;20173;-76
2024/01/01 08:41:20;;;;;;;14.93;2.53;;;;;;;;;;6304487;22;20166;-76
2024/01/01 08:43:56;;;;;;;10.50;3.27;;;;;;;;;;6304618;22;20193;-77
2024/01/01 08:46:24;;;;;;;15.77;3.63;;;;;;;;;;6305456;22;20172;-77
2024/01/01 08:48:52;;;;;;;12.97;3.63;;;;;;;;;;6305703;22;20177;-77
2024/01/01 08:51:19;;;;;;;17.70;5.37;;;;;;;;;;6304828;22;20166;-77
2024/01/01 08:53:46;;;;;;;14.83;3.83;;;;;;;;;;6304796;22;20236;-77
2024/01/01 08:56:13;;;;;;;7.43;2.27;;;;;;;;;;6304546;22;20174;-76
2024/01/01 08:58:40;;;;;;;10.93;2.23;;;;;;;;;;6306803;22;20201;-77
2024/01/01 09:01:09;;;;;;;8.43;2.13;;;;;;;;;;6306444;22;20249;-77
2024/01/01 09:03:38;;;;;;;11.20;1.93;;;;;;;;;;6307045;22;20197;-76
2024/01/01 09:06:06;;;;;;;9.57;2.43;;;;;;;;;;6306657;22;20177;-77
2024/01/01 09:08:33;;;;;;;10.30;2.33;;;;;;;;;;6307031;22;20249;-77
2024/01/01 09:11:00;;;;;;;16.33;3.03;;;;;;;;;;6306360;22;20193;-77
2024/01/01 09:13:27;;;;;;;13.77;3.03;;;;;;;;;;6306758;22;20208;-77
2024/01/01 09:15:54;;;;;;;8.77;3.00;;;;;;;;;;6306626;22;20581;-76
2024/01/01 09:18:23;;;;;;;8.27;2.43;;;;;;;;;;6306144;22;20256;-77
2024/01/01 09:20:50;;;;;;;9.03;1.80;;;;;;;;;;6306673;22;20170;-76
2024/01/01 09:23:17;;;;;;;7.17;1.87;;;;;;;;;;6306327;22;20257;-77
2024/01/01 09:25:44;;;;;;;6.77;1.80;;;;;;;;;;6305892;22;20204;-77
2024/01/01 09:28:12;;;;;;;6.47;1.57;;;;;;;;;;6306714;22;20205;-78
2024/01/01 09:30:39;;;;;;;8.00;1.70;;;;;;;;;;6306368;22;20253;-75
2024/01/01 09:33:06;;;;;;;5.63;1.70;;;;;;;;;;6306861;22;20209;-77
2024/01/01 09:35:35;;;;;;;6.30;1.42;;;;;;;;;;6306571;22;20204;-77
2024/01/01 09:38:03;;;;;;;7.75;1.63;;;;;;;;;;6306227;22;20628;-74
2024/01/01 09:40:30;;;;;;;6.57;1.50;;;;;;;;;;6305990;22;20166;-77
2024/01/01 09:42:57;;;;;;;4.40;1.67;;;;;;;;;;6305645;22;20636;-78
2024/01/01 09:45:26;;;;;;;8.20;2.05;;;;;;;;;;6306413;22;20555;-77
2024/01/01 09:47:53;;;;;;;6.75;2.47;;;;;;;;;;6306468;22;20245;-77
2024/01/01 09:50:21;;;;;;;8.75;2.33;;;;;;;;;;6305810;22;20568;-77
2024/01/01 09:52:58;;;;;;;5.13;1.80;;;;;;;;;;6306330;22;20229;-77
2024/01/01 09:55:25;;;;;;;7.50;1.70;;;;;;;;;;6306005;22;20201;-77
2024/01/01 09:57:52;;;;;;;7.32;1.60;;;;;;;;;;6305881;22;20692;-78
2024/01/01 10:00:21;;;;;;;8.55;1.75;;;;;;;;;;6305753;22;20202;-78
2024/01/01 10:02:48;;;;;;;6.97;1.50;;;;;;;;;;6306367;22;20679;-77
2024/01/01 10:05:16;;;;;;;7.50;1.83;;;;;;;;;;6306057;22;20200;-77
2024/01/01 10:07:43;;;;;;;5.38;1.48;;;;;;;;;;6305785;22;20193;-76
2024/01/01 10:10:12;;;;;;;5.15;1.23;;;;;;;;;;6305362;22;20254;-77
2024/01/01 10:12:45;;;;;;;5.57;1.43;;;;;;;;;;6305606;22;20173;-76
2024/01/01 10:15:13;;;;;;;7.55;1.45;;;;;;;;;;6306328;22;20166;-76
2024/01/01 10:17:40;;;;;;;4.20;1.40;;;;;;;;;;6305474;22;20555;-76
2024/01/01 10:20:08;;;;;;;4.57;1.10;;;;;;;;;;6305716;22;20200;-77
2024/01/01 10:22:35;;;;;;;5.23;1.37;;;;;;;;;;6305449;22;20173;-77
2024/01/01 10:25:13;;;;;;;3.80;1.05;;;;;;;;;;6305611;22;20170;-78
2024/01/01 10:27:43;;;;;;;4.07;1.35;;;;;;;;;;6305583;22;20520;-77
2024/01/01 10:30:10;;;;;;;5.63;1.23;;;;;;;;;;6306013;22;20510;-77
2024/01/01 10:32:39;;;;;;;6.55;1.10;;;;;;;;;;6305571;22;20244;-77
2024/01/01 10:35:07;;;;;;;6.30;1.42;;;;;;;;;;6305085;22;20190;-77
2024/01/01 10:37:35;;;;;;;4.60;1.13;;;;;;;;;;6305498;22;20515;-77
2024/01/01 10:40:05;;;;;;;7.78;1.40;;;;;;;;;;6305493;22;20633;-76
2024/01/01 10:42:35;;;;;;;2.30;0.93;;;;;;;;;;6305660;22;20193;-77
2024/01/01 10:45:04;;;;;;;6.90;1.00;;;;;;;;;;6305618;22;20198;-76
2024/01/01 10:47:31;;;;;;;6.77;1.20;;;;;;;;;;6306119;22;20249;-79
2024/01/01 10:50:04;;;;;;;6.07;1.27;;;;;;;;;;6305558;22;20212;-78
2024/01/01 10:52:39;;;;;;;5.80;1.20;;;;;;;;;;6305253;22;20227;-77
2024/01/01 10:55:19;;;;;;;4.27;1.00;;;;;;;;;;6305757;22;20256;-77
2024/01/01 10:57:56;;;;;;;8.73;1.50;;;;;;;;;;6304903;22;20169;-77
2024/01/01 11:00:29;;;;;;;6.80;1.47;;;;;;;;;;6305395;22;20193;-77
2024/01/01 11:02:56;;;;;;;4.57;1.20;;;;;;;;;;6305524;22;20212;-77
2024/01/01 11:05:32;;;;;;;4.27;1.07;;;;;;;;;;6305588;22;20534;-77
2024/01/01 11:08:00;;;;;;;4.63;1.00;;;;;;;;;;6304797;22;20184;-77
2024/01/01 11:10:37;;;;;;;5.03;1.27;;;;;;;;;;6305342;22;20254;-78
2024/01/01 11:13:06;;;;;;;6.60;1.50;;;;;;;;;;6305511;22;20224;-78
2024/01/01 11:15:40;;;;;;;4.10;1.20;;;;;;;;;;6305655;22;20169;-78
2024/01/01 11:18:14;;;;;;;4.33;1.20;;;;;;;;;;6304979;22;20713;-77
2024/01/01 11:20:48;;;;;;;4.00;1.30;;;;;;;;;;6304835;22;20232;-76
2024/01/01 11:23:39;;;;;;;4.83;1.23;;;;;;;;;;6305614;22;20526;-78
2024/01/01 11:26:25;;;;;;;5.43;1.03;;;;;;;;;;6305365;22;20166;-76
2024/01/01 11:28:54;;;;;;;5.13;1.30;;;;;;;;;;6305292;22;20557;-78
2024/01/01 11:31:21;;;;;;;6.40;1.53;;;;;;;;;;6304696;22;20170;-76
2024/01/01 11:33:59;;;;;;;6.13;1.20;;;;;;;;;;6305821;22;20239;-75
2024/01/01 11:36:26;;;;;;;4.90;1.10;;;;;;;;;;6304722;22;20197;-75
2024/01/01 11:38:54;;;;;;;8.10;1.40;;;;;;;;;;6304670;22;20505;-77
2024/01/01 11:41:24;;;;;;;7.90;1.17;;;;;;;;;;6305415;22;20260;-76
2024/01/01 11:43:51;;;;;;;6.40;1.30;;;;;;;;;;6305831;22;20224;-76
2024/01/01 11:46:27;;;;;;;5.77;1.10;;;;;;;;;;6305295;22;20193;-76
2024/01/01 11:48:57;;;;;;;6.27;1.20;;;;;;;;;;6305174;22;20196;-76
2024/01/01 11:51:25;;;;;;;6.57;1.30;;;;;;;;;;6304730;22;20663;-76
2024/01/01 11:54:05;;;;;;;5.10;1.37;;;;;;;;;;6305502;22;20236;-75
2024/01/01 11:56:32;;;;;;;4.73;1.40;;;;;;;;;;6304934;22;20204;-75
2024/01/01 11:59:00;;;;;;;8.07;1.50;;;;;;;;;;6304807;22;20197;-76
2024/01/01 12:01:29;;;;;;;4.70;1.40;;;;;;;;;;6305161;22;20201;-75
2024/01/01 12:03:57;;;;;;;4.27;1.20;;;;;;;;;;6304631;22;20253;-75
2024/01/01 12:06:24;;;;;;;5.10;1.20;;;;;;;;;;6304520;22;20189;-75
2024/01/01 12:08:52;;;;;;;5.33;1.07;;;;;;;;;;6304873;22;20548;-77
2024/01/01 12:11:19;;;;;;;8.80;1.20;;;;;;;;;;6304569;22;20678;-76
2024/01/01 12:13:56;;;;;;;8.10;1.77;;;;;;;;;;6304765;22;20288;-76
2024/01/01 12:16:23;;;;;;;11.83;2.30;;;;;;;;;;6304036;22;20674;-76
2024/01/01 12:18:57;;;;;;;5.93;1.60;;;;;;;;;;6304328;22;20170;-76
2024/01/01 12:21:25;;;;;;;7.23;1.57;;;;;;;;;;6304897;22;20165;-76
2024/01/01 12:24:03;;;;;;;5.20;1.53;;;;;;;;;;6304857;22;20550;-77
2024/01/01 12:26:31;;;;;;;5.77;1.50;;;;;;;;;;6304535;22;20176;-77
2024/01/01 12:29:14;;;;;;;5.87;1.30;;;;;;;;;;6304864;22;20223;-76
2024/01/01 12:31:42;;;;;;;5.77;1.10;;;;;;;;;;6304867;22;20196;-76
2024/01/01 12:34:13;;;;;;;6.20;1.20;;;;;;;;;;6306294;22;20198;-77
2024/01/01 12:36:41;;;;;;;6.87;1.20;;;;;;;;;;6307289;22;20170;-76
2024/01/01 12:39:08;;;;;;;7.37;1.33;;;;;;;;;;6306964;22;20190;-77
2024/01/01 12:41:35;;;;;;;6.53;1.10;;;;;;;;;;6307061;22;20194;-77
2024/01/01 12:44:02;;;;;;;7.67;1.30;;;;;;;;;;6306998;22;20209;-77
2024/01/01 12:46:29;;;;;;;9.77;1.50;;;;;;;;;;6306694;22;20165;-77
2024/01/01 12:48:57;;;;;;;6.37;1.30;;;;;;;;;;6306684;22;20218;-77
2024/01/01 12:51:26;;;;;;;8.80;1.60;;;;;;;;;;6307649;22;20201;-76
2024/01/01 12:53:54;;;;;;;8.17;1.80;;;;;;;;;;6306258;22;20244;-75
2024/01/01 12:56:22;;;;;;;10.47;1.47;;;;;;;;;;6304324;22;20238;-77
2024/01/01 12:58:49;;;;;;;7.53;1.40;;;;;;;;;;6300514;22;20201;-76
2024/01/01 13:01:16;;;;;;;10.83;1.97;;;;;;;;;;6304644;22;20566;-76
2024/01/01 13:03:44;;;;;;;9.57;2.13;;;;;;;;;;6305686;22;20174;-77
2024/01/01 13:06:15;;;;;;;8.07;1.77;;;;;;;;;;6306401;22;20170;-77
2024/01/01 13:08:45;;;;;;;9.40;1.80;;;;;;;;;;6306261;22;20170;-76
2024/01/01 13:11:12;;;;;;;6.43;1.67;;;;;;;;;;6306115;22;20554;-76
2024/01/01 13:13:39;;;;;;;6.47;1.90;;;;;;;;;;6304089;22;20169;-75
2024/01/01 13:16:07;;;;;;;6.60;1.73;;;;;;;;;;6305906;22;20227;-75
2024/01/01 13:18:34;;;;;;;10.57;2.10;;;;;;;;;;6305140;22;20201;-77
2024/01/01 13:21:02;;;;;;;9.37;1.90;;;;;;;;;;6306231;22;20197;-76
2024/01/01 13:23:29;;;;;;;5.70;1.60;;;;;;;;;;6306810;22;20616;-76
2024/01/01 13:25:58;;;;;;;7.67;1.60;;;;;;;;;;6304108;22;20588;-74
2024/01/01 13:28:26;;;;;;;6.93;1.30;;;;;;;;;;6306641;22;20177;-78
2024/01/01 13:30:53;;;;;;;7.57;1.50;;;;;;;;;;6302977;22;20193;-77
2024/01/01 13:33:20;;;;;;;6.33;1.60;;;;;;;;;;6310354;22;20166;-77
2024/01/01 13:35:48;;;;;;;8.13;1.90;;;;;;;;;;6302359;22;20240;-77
2024/01/01 13:38:15;;;;;;;7.13;1.40;;;;;;;;;;6302361;22;20200;-78
2024/01/01 13:40:43;;;;;;;10.17;2.10;;;;;;;;;;6302365;22;20269;-78
2024/01/01 13:43:11;;;;;;;4.87;1.40;;;;;;;;;;6301764;22;20236;-77
2024/01/01 13:45:39;;;;;;;6.13;1.20;;;;;;;;;;6301911;22;20173;-78
2024/01/01 13:48:06;;;;;;;8.87;1.20;;;;;;;;;;6302475;22;20196;-78
2024/01/01 13:50:34;;;;;;;7.47;1.43;;;;;;;;;;6301345;22;20166;-78
2024/01/01 13:53:05;;;;;;;7.70;1.53;;;;;;;;;;6302140;22;20174;-78
2024/01/01 13:55:32;;;;;;;9.03;1.50;;;;;;;;;;6302493;22;20208;-77
2024/01/01 13:58:00;;;;;;;5.70;1.27;;;;;;;;;;6301856;22;20261;-76
2024/01/01 14:00:29;;;;;;;6.40;1.27;;;;;;;;;;6301012;22;20204;-81
2024/01/01 14:02:56;;;;;;;5.00;1.33;;;;;;;;;;6301268;22;20510;-80
2024/01/01 14:05:23;;;;;;;5.27;1.37;;;;;;;;;;6301220;22;20173;-81
2024/01/01 14:07:51;;;;;;;10.17;1.50;;;;;;;;;;6301779;22;20193;-79
2024/01/01 14:10:19;;;;;;;6.80;1.67;;;;;;;;;;6301495;22;20227;-81
2024/01/01 14:12:46;;;;;;;6.60;1.53;;;;;;;;;;6306177;22;20172;-81
2024/01/01 14:15:13;;;;;;;5.37;2.00;;;;;;;;;;6305556;22;20202;-81
2024/01/01 14:17:42;;;;;;;6.10;1.37;;;;;;;;;;6306416;22;20173;-81
2024/01/01 14:20:11;;;;;;;8.03;1.50;;;;;;;;;;6306051;22;20570;-80
2024/01/01 14:22:39;;;;;;;8.30;1.67;;;;;;;;;;6305753;22;20177;-81
2024/01/01 14:25:07;;;;;;;8.27;1.30;;;;;;;;;;6305366;22;20182;-81
2024/01/01 14:27:34;;;;;;;10.27;1.90;;;;;;;;;;6305761;22;20176;-79
2024/01/01 14:30:01;;;;;;;8.37;1.50;;;;;;;;;;6305416;22;20166;-81
2024/01/01 14:32:28;;;;;;;4.87;1.40;;;;;;;;;;6305740;22;20193;-80
2024/01/01 14:34:57;;;;;;;7.00;1.30;;;;;;;;;;6305318;22;20197;-80
2024/01/01 14:37:24;;;;;;;8.83;1.50;;;;;;;;;;6303660;22;20423;-78
2024/01/01 14:39:51;;;;;;;8.57;1.63;;;;;;;;;;6305284;22;20205;-79
2024/01/01 14:42:19;;;;;;;8.70;1.50;;;;;;;;;;6305846;22;20248;-79